Time;durP1;ratioP1;P1;durP2;ratioP2;P2;SDS_P1;SDS_P2;PMS_P1;PMS_P2;Temp;Humidity;BMP_temperature;BMP_pressure;BME280_temperature;BME280_humidity;BME280_pressure;Samples;Min_cycle;Max_cycle;Signal;HPM_P1;HPM_P2
2024/01/13 00:00:26;;;;;;;80.70;34.65;;;;;;;4.36;70.08;102097.94;4875406;29;20487;-83
2024/01/13 00:02:53;;;;;;;74.57;37.38;;;;;;;4.32;70.94;102103.38;4878599;28;20067;-83
2024/01/13 00:05:20;;;;;;;69.65;35.30;;;;;;;4.41;70.23;102114.38;4891126;29;20086;-82
2024/01/13 00:07:47;;;;;;;74.45;36.20;;;;;;;3.83;71.12;102014.13;4887488;29;20516;-81
2024/01/13 00:10:14;;;;;;;74.78;35.33;;;;;;;4.41;70.77;102109.13;4902893;28;20049;-82
2024/01/13 00:12:44;;;;;;;72.38;37.50;;;;;;;4.04;70.53;102031.69;4946085;28;20047;-82
2024/01/13 00:15:19;;;;;;;68.32;36.83;;;;;;;4.50;70.84;102108.78;4915413;28;20058;-81
2024/01/13 00:17:46;;;;;;;72.43;37.70;;;;;;;4.26;71.15;102070.28;4925914;28;20043;-81
2024/01/13 00:20:17;;;;;;;73.50;39.50;;;;;;;3.95;71.52;102012.81;4910721;29;20086;-80
2024/01/13 00:22:47;;;;;;;71.18;38.95;;;;;;;4.29;71.93;102075.41;4910472;29;20047;-84
2024/01/13 00:25:15;;;;;;;72.05;38.40;;;;;;;4.48;71.19;102105.34;4891902;29;20133;-82
2024/01/13 00:27:42;;;;;;;70.20;36.17;;;;;;;4.47;71.25;102093.13;4906078;29;20121;-83
2024/01/13 00:30:10;;;;;;;56.63;32.95;;;;;;;4.57;70.46;102098.03;4933561;28;20051;-82
2024/01/13 00:32:37;;;;;;;71.30;36.40;;;;;;;4.44;71.06;102108.16;4908962;28;20050;-83
2024/01/13 00:35:09;;;;;;;69.07;35.75;;;;;;;4.33;71.49;102100.69;4911805;28;20693;-82
2024/01/13 00:37:35;;;;;;;65.75;34.88;;;;;;;4.17;72.12;102094.31;4921556;28;20055;-81
2024/01/13 00:40:02;;;;;;;67.80;36.85;;;;;;;4.17;72.19;102105.66;4909267;28;20039;-81
2024/01/13 00:42:29;;;;;;;67.13;35.60;;;;;;;4.13;72.66;102100.59;4923429;28;20563;-82
2024/01/13 00:44:57;;;;;;;59.15;34.45;;;;;;;3.67;72.03;102020.91;4914368;28;20979;-81
2024/01/13 00:47:33;;;;;;;72.13;35.40;;;;;;;4.03;72.56;102093.06;4902756;29;20055;-81
2024/01/13 00:50:00;;;;;;;68.38;34.58;;;;;;;4.01;72.70;102087.00;4899035;29;20063;-81
2024/01/13 00:52:31;;;;;;;67.10;37.05;;;;;;;4.14;72.53;102097.06;4926451;28;20051;-82
2024/01/13 00:54:58;;;;;;;68.80;35.15;;;;;;;4.12;72.38;102096.25;4902175;28;20047;-80
2024/01/13 00:57:25;;;;;;;67.03;34.72;;;;;;;3.95;72.64;102068.84;4917091;28;20070;-82
2024/01/13 00:59:52;;;;;;;71.65;35.38;;;;;;;4.13;72.73;102087.47;4916463;28;20051;-83
2024/01/13 01:02:23;;;;;;;70.70;33.53;;;;;;;4.07;72.64;102084.13;4893446;28;20483;-81
2024/01/13 01:04:50;;;;;;;63.80;34.13;;;;;;;3.75;72.96;102039.84;4914074;29;20463;-81
2024/01/13 01:07:18;;;;;;;68.32;35.22;;;;;;;3.45;73.00;102005.03;4910990;28;20059;-83
2024/01/13 01:09:45;;;;;;;72.72;36.22;;;;;;;3.92;73.34;102089.97;4915187;28;20047;-82
2024/01/13 01:12:12;;;;;;;65.78;33.22;;;;;;;3.91;73.37;102088.28;4923253;28;20059;-81
2024/01/13 01:14:40;;;;;;;56.60;32.30;;;;;;;3.93;73.16;102091.72;4903817;29;20130;-81
2024/01/13 01:17:13;;;;;;;65.80;34.20;;;;;;;3.76;73.68;102070.44;4894109;29;20492;-83
2024/01/13 01:19:56;;;;;;;64.57;34.90;;;;;;;3.79;73.66;102084.31;4907159;29;20162;-81
2024/01/13 01:22:26;;;;;;;72.45;35.38;;;;;;;3.72;74.19;102074.09;4924284;28;20451;-82
2024/01/13 01:24:53;;;;;;;59.58;34.63;;;;;;;3.77;74.02;102090.56;4923720;28;20054;-82
2024/01/13 01:27:22;;;;;;;69.68;32.10;;;;;;;3.85;73.71;102072.72;4908995;29;20471;-82
2024/01/13 01:29:56;;;;;;;72.38;33.75;;;;;;;3.96;73.04;102075.81;4901486;29;20059;-83
2024/01/13 01:32:26;;;;;;;63.22;31.27;;;;;;;3.87;72.96;102060.38;4917130;28;20126;-84
2024/01/13 01:34:53;;;;;;;64.18;32.67;;;;;;;3.37;73.46;101992.19;4919946;28;20071;-81
2024/01/13 01:37:24;;;;;;;68.75;33.53;;;;;;;2.95;73.75;101943.84;4916350;29;20138;-79
2024/01/13 01:39:51;;;;;;;60.67;30.27;;;;;;;3.79;73.14;102070.34;4902429;28;20142;-80
2024/01/13 01:42:19;;;;;;;53.92;29.05;;;;;;;3.81;72.50;102057.97;4902370;28;20434;-82
2024/01/13 01:44:46;;;;;;;67.47;30.88;;;;;;;3.77;72.75;102072.16;4898647;28;20071;-82
2024/01/13 01:47:14;;;;;;;60.88;31.33;;;;;;;3.58;73.45;102061.47;4903352;29;20803;-81
2024/01/13 01:49:42;;;;;;;64.82;31.05;;;;;;;3.51;73.70;102065.22;4908000;28;20075;-80
2024/01/13 01:52:17;;;;;;;61.33;29.70;;;;;;;3.55;73.55;102058.97;4876948;29;20676;-81
2024/01/13 01:54:44;;;;;;;60.78;29.85;;;;;;;3.07;72.80;101968.78;4910032;28;20102;-82
2024/01/13 01:57:18;;;;;;;61.17;30.20;;;;;;;3.60;73.46;102063.13;4893667;29;20594;-83
2024/01/13 01:59:45;;;;;;;58.25;28.83;;;;;;;3.19;73.09;102010.34;4910066;29;20047;-82
2024/01/13 02:02:12;;;;;;;57.42;28.77;;;;;;;3.39;73.90;102056.00;4910608;28;20478;-81
2024/01/13 02:04:39;;;;;;;55.78;28.52;;;;;;;3.35;74.16;102059.66;4905671;29;20089;-79
2024/01/13 02:07:06;;;;;;;54.80;27.52;;;;;;;3.34;74.54;102066.69;4909378;29;20059;-82
2024/01/13 02:09:34;;;;;;;54.08;27.27;;;;;;;3.35;73.86;102067.53;4889260;29;20506;-81
2024/01/13 02:12:01;;;;;;;44.78;26.23;;;;;;;3.38;73.25;102077.94;4916894;28;20518;-82
2024/01/13 02:14:37;;;;;;;49.75;28.27;;;;;;;3.38;73.63;102056.94;4907080;29;20046;-83
2024/01/13 02:17:04;;;;;;;47.92;27.10;;;;;;;3.52;73.33;102054.69;4920870;28;20083;-81
2024/01/13 02:19:33;;;;;;;47.08;26.33;;;;;;;3.54;73.41;102068.59;4917514;28;20053;-83
2024/01/13 02:22:00;;;;;;;47.03;26.95;;;;;;;3.39;72.96;102050.75;4933130;28;20086;-81
2024/01/13 02:24:31;;;;;;;50.08;28.67;;;;;;;3.47;72.83;102063.63;4914145;29;20055;-83
2024/01/13 02:26:58;;;;;;;43.95;25.58;;;;;;;3.44;73.55;102077.72;4928770;28;20063;-81
2024/01/13 02:29:33;;;;;;;52.33;25.65;;;;;;;3.35;73.82;102050.03;4931065;29;20418;-81
2024/01/13 02:32:00;;;;;;;41.83;24.75;;;;;;;3.64;72.61;102054.22;4926002;28;20120;-81
2024/01/13 02:34:27;;;;;;;46.97;24.13;;;;;;;3.18;71.31;101971.91;4891257;29;20178;-82
2024/01/13 02:36:59;;;;;;;52.03;26.52;;;;;;;3.69;70.81;102047.94;4903610;29;20056;-81
2024/01/13 02:39:26;;;;;;;45.10;25.50;;;;;;;3.59;72.00;102056.16;4913765;28;20541;-82
2024/01/13 02:41:53;;;;;;;52.38;25.42;;;;;;;2.94;71.70;101972.78;4930543;28;20134;-80
2024/01/13 02:44:20;;;;;;;49.38;26.00;;;;;;;3.26;72.02;102031.97;4901942;28;20520;-82
2024/01/13 02:46:46;;;;;;;42.28;23.92;;;;;;;3.32;72.86;102057.16;4897897;28;20306;-81
2024/01/13 02:49:15;;;;;;;42.72;23.80;;;;;;;3.20;73.51;102048.81;4912415;28;20079;-80
2024/01/13 02:51:45;;;;;;;42.33;26.40;;;;;;;3.17;73.21;102056.75;4893256;28;20073;-81
2024/01/13 02:54:12;;;;;;;44.85;23.25;;;;;;;2.87;73.56;101997.50;4914986;29;20354;-81
2024/01/13 02:56:39;;;;;;;39.72;23.25;;;;;;;3.28;73.03;102045.06;4922159;29;20142;-81
2024/01/13 02:59:08;;;;;;;42.53;23.00;;;;;;;3.06;72.94;102016.06;4920902;29;20055;-81
2024/01/13 03:01:38;;;;;;;45.20;24.05;;;;;;;3.18;73.15;102029.63;4918956;28;20500;-82
2024/01/13 03:04:11;;;;;;;42.15;22.20;;;;;;;3.02;73.08;102015.31;4911212;28;20102;-83
2024/01/13 03:06:44;;;;;;;41.03;22.23;;;;;;;3.07;72.66;102047.50;4886346;28;20316;-82
2024/01/13 03:09:20;;;;;;;43.83;23.00;;;;;;;3.06;73.17;102006.44;4872814;28;20106;-83
2024/01/13 03:11:47;;;;;;;40.08;22.75;;;;;;;2.98;72.98;101990.09;4890030;28;20043;-82
2024/01/13 03:14:14;;;;;;;42.03;22.75;;;;;;;3.13;72.92;102036.81;4906843;28;20498;-83
2024/01/13 03:16:41;;;;;;;51.78;25.23;;;;;;;2.22;72.59;101884.31;4911140;28;20550;-81
2024/01/13 03:19:08;;;;;;;47.13;25.25;;;;;;;3.15;72.96;102026.25;4936781;28;20911;-83
2024/01/13 03:21:39;;;;;;;49.25;25.77;;;;;;;2.91;73.26;101988.59;4888322;28;20481;-82
2024/01/13 03:24:06;;;;;;;57.00;26.95;;;;;;;3.14;73.16;102021.91;4889765;28;20046;-82
2024/01/13 03:26:34;;;;;;;49.40;26.55;;;;;;;2.97;73.37;101994.50;4918623;28;20062;-81
2024/01/13 03:29:01;;;;;;;49.90;27.60;;;;;;;3.17;72.94;102019.19;4910856;28;20246;-81
2024/01/13 03:31:28;;;;;;;50.53;26.90;;;;;;;3.33;72.60;102030.00;4898528;28;20709;-83
2024/01/13 03:33:59;;;;;;;47.50;26.88;;;;;;;3.26;72.24;101999.63;4898323;28;20304;-83
2024/01/13 03:36:26;;;;;;;45.75;23.45;;;;;;;3.45;71.09;102000.69;4913725;28;20043;-83
2024/01/13 03:38:56;;;;;;;46.90;26.08;;;;;;;3.29;70.98;101984.63;4910947;28;20885;-83
2024/01/13 03:41:23;;;;;;;47.47;25.30;;;;;;;3.25;70.82;102000.53;4907716;28;20517;-83
2024/01/13 03:43:50;;;;;;;51.75;25.83;;;;;;;3.19;72.13;102010.34;4932727;28;20061;-82
2024/01/13 03:46:17;;;;;;;50.40;26.10;;;;;;;3.01;72.62;101987.38;4914925;28;20054;-81
2024/01/13 03:48:44;;;;;;;50.15;25.70;;;;;;;2.84;72.29;101958.25;4926272;28;20050;-83
2024/01/13 03:51:12;;;;;;;47.45;24.52;;;;;;;2.95;73.54;101990.22;4971094;28;20054;-79
2024/01/13 03:53:39;;;;;;;43.20;24.67;;;;;;;3.06;73.68;102024.81;4921396;28;20065;-81
2024/01/13 03:56:08;;;;;;;44.47;25.08;;;;;;;3.04;73.68;102018.75;4922655;28;20066;-82
2024/01/13 03:58:38;;;;;;;48.33;26.38;;;;;;;2.99;74.13;102018.06;4915722;28;20108;-83
2024/01/13 04:01:05;;;;;;;57.15;27.15;;;;;;;2.64;73.73;101969.41;4923638;28;20055;-81
2024/01/13 04:03:36;;;;;;;48.75;24.83;;;;;;;2.92;74.00;102019.19;4891772;28;20087;-83
2024/01/13 04:06:04;;;;;;;48.63;26.10;;;;;;;2.77;72.97;101992.56;4902349;28;20086;-83
2024/01/13 04:08:34;;;;;;;49.55;26.85;;;;;;;2.89;73.16;102006.16;4919956;28;20051;-83
2024/01/13 04:11:08;;;;;;;56.45;29.48;;;;;;;2.93;73.13;102002.53;4902183;28;20077;-83
2024/01/13 04:13:36;;;;;;;49.50;29.23;;;;;;;2.58;73.23;101944.28;4894908;29;20070;-84
2024/01/13 04:16:04;;;;;;;58.72;30.90;;;;;;;3.01;72.63;102000.50;4932416;28;20051;-82
2024/01/13 04:18:34;;;;;;;58.35;30.02;;;;;;;2.89;71.88;101972.94;4952887;28;20050;-83
2024/01/13 04:21:09;;;;;;;61.22;30.60;;;;;;;3.13;71.53;102013.19;4927311;28;20085;-82
2024/01/13 04:23:49;;;;;;;58.40;31.25;;;;;;;3.02;71.99;101991.72;4913825;28;20385;-80
2024/01/13 04:26:19;;;;;;;58.25;32.65;;;;;;;2.87;71.71;101948.50;4915483;28;20486;-81
2024/01/13 04:28:48;;;;;;;65.00;32.20;;;;;;;3.38;70.96;102014.94;4913735;28;20582;-82
2024/01/13 04:31:15;;;;;;;60.90;31.92;;;;;;;3.34;70.59;102013.31;4881977;29;20051;-83
2024/01/13 04:33:42;;;;;;;56.55;31.52;;;;;;;3.33;70.71;102011.63;4883902;29;20055;-80
2024/01/13 04:36:10;;;;;;;59.88;30.98;;;;;;;3.27;70.79;102007.44;4891791;29;20137;-81
2024/01/13 04:38:38;;;;;;;58.65;30.80;;;;;;;3.14;70.52;101978.16;4883504;29;20452;-83
2024/01/13 04:41:05;;;;;;;57.47;30.88;;;;;;;3.14;70.69;101983.41;4917875;28;20073;-81
2024/01/13 04:43:41;;;;;;;59.63;31.95;;;;;;;3.32;70.51;102004.66;4920200;28;20259;-83
2024/01/13 04:46:25;;;;;;;60.45;31.05;;;;;;;3.21;70.69;102000.66;4880574;28;20442;-82
2024/01/13 04:48:52;;;;;;;56.80;30.85;;;;;;;3.16;71.07;101976.34;4924439;28;20066;-81
2024/01/13 04:51:19;;;;;;;57.00;30.70;;;;;;;2.84;70.48;101930.28;4948449;28;20137;-82
2024/01/13 04:53:46;;;;;;;60.60;31.83;;;;;;;3.00;70.74;101956.78;4931298;28;20066;-83
2024/01/13 04:56:13;;;;;;;65.63;32.25;;;;;;;3.11;70.95;101980.06;4899795;28;20053;-81
2024/01/13 04:58:40;;;;;;;58.45;31.17;;;;;;;3.01;71.42;101961.16;4901063;28;20057;-81
2024/01/13 05:01:12;;;;;;;53.58;32.15;;;;;;;3.01;71.38;101963.78;4904482;28;20082;-82
2024/01/13 05:03:42;;;;;;;61.22;34.33;;;;;;;3.27;70.56;101996.09;4903495;28;20050;-82
2024/01/13 05:06:15;;;;;;;64.25;32.85;;;;;;;3.34;70.70;102005.44;4911316;28;20134;-83
2024/01/13 05:08:47;;;;;;;62.45;33.35;;;;;;;3.23;70.60;101990.09;4909117;28;20050;-82
2024/01/13 05:11:14;;;;;;;67.75;34.75;;;;;;;3.12;70.94;101968.63;4902869;28;20082;-82
2024/01/13 05:13:41;;;;;;;64.00;34.15;;;;;;;3.03;71.27;101966.31;4904479;28;20495;-82
2024/01/13 05:16:08;;;;;;;61.92;35.05;;;;;;;2.90;71.22;101939.69;4902107;28;20057;-82
2024/01/13 05:18:39;;;;;;;68.22;35.08;;;;;;;3.32;71.11;102012.53;4914741;28;20042;-82
2024/01/13 05:21:07;;;;;;;67.93;35.42;;;;;;;3.31;70.68;102005.56;4910805;28;20125;-81
2024/01/13 05:23:34;;;;;;;70.18;38.65;;;;;;;3.24;70.74;101993.56;4895114;28;20788;-83
2024/01/13 05:26:01;;;;;;;72.35;36.05;;;;;;;3.34;70.98;102018.56;4909927;28;20509;-81
2024/01/13 05:28:29;;;;;;;74.53;37.33;;;;;;;2.74;71.09;101916.63;4900449;28;20043;-84
2024/01/13 05:30:55;;;;;;;75.22;37.08;;;;;;;3.30;70.98;102014.34;4890036;28;20650;-82
2024/01/13 05:33:26;;;;;;;66.53;34.28;;;;;;;3.22;70.96;101997.09;4904917;28;20084;-83
2024/01/13 05:35:53;;;;;;;68.47;36.25;;;;;;;3.35;70.82;102015.03;4906254;28;20051;-81
2024/01/13 05:38:20;;;;;;;67.53;34.47;;;;;;;3.30;70.60;102001.22;4885404;28;20054;-80
2024/01/13 05:40:48;;;;;;;68.55;35.63;;;;;;;2.97;70.33;101946.41;4904176;28;20086;-81
2024/01/13 05:43:16;;;;;;;69.55;35.22;;;;;;;3.37;70.25;102008.84;4915016;28;20069;-83
2024/01/13 05:45:46;;;;;;;67.80;36.45;;;;;;;3.25;70.63;101987.41;4917188;28;20088;-83
2024/01/13 05:48:17;;;;;;;67.75;34.88;;;;;;;3.34;70.52;102008.06;4914742;28;20051;-83
2024/01/13 05:50:44;;;;;;;73.82;36.17;;;;;;;3.18;70.65;101994.63;4923384;28;20551;-82
2024/01/13 05:53:14;;;;;;;73.10;36.53;;;;;;;3.19;71.03;101999.00;4938702;28;20106;-81
2024/01/13 05:55:43;;;;;;;68.45;37.67;;;;;;;3.27;71.27;102017.94;4916263;28;20043;-81
2024/01/13 05:58:09;;;;;;;69.03;36.42;;;;;;;3.26;71.05;102010.97;4928867;28;20628;-81
2024/01/13 06:00:36;;;;;;;66.22;36.28;;;;;;;3.24;71.51;102017.19;4916709;28;20050;-81
2024/01/13 06:03:04;;;;;;;69.68;35.80;;;;;;;2.78;70.84;101936.56;4915586;28;20080;-80
2024/01/13 06:05:33;;;;;;;71.18;37.10;;;;;;;2.80;71.53;101938.31;4911487;28;20051;-81
2024/01/13 06:08:00;;;;;;;70.47;36.47;;;;;;;3.17;71.63;101999.03;4937986;28;20043;-81
2024/01/13 06:10:28;;;;;;;74.50;39.17;;;;;;;3.07;72.15;102000.28;4933446;28;20050;-82
2024/01/13 06:12:56;;;;;;;70.57;35.90;;;;;;;3.16;71.92;102010.44;4909684;28;20586;-80
2024/01/13 06:15:23;;;;;;;67.47;34.92;;;;;;;3.11;72.56;102007.13;4913963;28;20053;-81
2024/01/13 06:17:56;;;;;;;83.32;39.35;;;;;;;3.13;72.82;102005.31;4899915;28;20382;-81
2024/01/13 06:20:24;;;;;;;69.07;38.35;;;;;;;3.10;72.50;102000.16;4924399;28;20057;-83
2024/01/13 06:22:52;;;;;;;79.68;39.42;;;;;;;2.63;72.31;101905.66;4930960;28;20135;-80
2024/01/13 06:25:19;;;;;;;72.20;38.35;;;;;;;2.93;72.18;101952.69;4917143;28;20459;-82
2024/01/13 06:27:48;;;;;;;74.20;39.55;;;;;;;3.18;72.71;101992.88;4943160;28;20055;-83
2024/01/13 06:30:18;;;;;;;70.63;39.78;;;;;;;3.14;72.38;101991.28;4925131;28;20051;-82
2024/01/13 06:32:45;;;;;;;76.40;38.63;;;;;;;3.10;72.46;101978.31;4910634;28;20046;-82
2024/01/13 06:35:12;;;;;;;79.80;38.47;;;;;;;3.12;72.39;101984.38;4895704;28;20173;-81
2024/01/13 06:37:44;;;;;;;80.43;41.53;;;;;;;3.11;72.15;101990.53;4870907;29;20083;-83
2024/01/13 06:40:11;;;;;;;79.00;38.35;;;;;;;3.20;72.28;102006.81;4886829;29;20459;-82
2024/01/13 06:42:38;;;;;;;75.70;38.83;;;;;;;2.67;72.52;101930.84;4899056;29;20142;-80
2024/01/13 06:45:08;;;;;;;76.75;40.65;;;;;;;3.13;72.43;102021.06;4923008;28;20497;-82
2024/01/13 06:47:35;;;;;;;67.60;35.28;;;;;;;3.10;72.60;102013.28;4945341;28;20100;-81
2024/01/13 06:50:03;;;;;;;72.78;37.88;;;;;;;2.95;72.52;101990.22;4925397;28;20423;-80
2024/01/13 06:52:30;;;;;;;69.20;35.85;;;;;;;2.65;71.67;101927.44;4943158;28;20582;-82
2024/01/13 06:54:56;;;;;;;63.95;34.65;;;;;;;3.05;70.81;101988.97;4909083;28;20073;-83
2024/01/13 06:57:26;;;;;;;68.03;36.25;;;;;;;3.12;70.85;102000.13;4918840;28;20051;-81
2024/01/13 06:59:56;;;;;;;64.75;36.95;;;;;;;3.20;70.94;102022.56;4918692;28;20521;-82
2024/01/13 07:02:23;;;;;;;70.43;35.35;;;;;;;3.10;69.86;101994.91;4916717;28;20348;-82
2024/01/13 07:04:51;;;;;;;62.30;32.70;;;;;;;2.64;70.15;101927.47;4930277;28;20313;-81
2024/01/13 07:07:19;;;;;;;64.85;32.75;;;;;;;3.05;70.28;102006.50;4919964;28;20517;-80
2024/01/13 07:09:49;;;;;;;61.20;30.88;;;;;;;2.87;69.07;101955.53;4944390;28;20051;-81
2024/01/13 07:12:21;;;;;;;52.88;28.27;;;;;;;3.30;69.24;102028.34;4948870;28;20058;-80
2024/01/13 07:14:49;;;;;;;53.80;29.95;;;;;;;3.00;69.18;101986.50;4917650;28;20562;-82
2024/01/13 07:17:19;;;;;;;60.58;29.80;;;;;;;3.10;68.75;102004.56;4940973;28;20047;-81
2024/01/13 07:19:54;;;;;;;53.03;26.95;;;;;;;3.19;68.42;102019.97;4965586;28;20057;-80
2024/01/13 07:22:27;;;;;;;54.03;28.35;;;;;;;3.12;68.50;102023.72;4960796;28;20074;-81
2024/01/13 07:24:57;;;;;;;52.45;27.05;;;;;;;3.07;68.97;102013.41;4951269;28;20054;-81
2024/01/13 07:27:24;;;;;;;52.13;27.50;;;;;;;3.15;68.66;102027.09;4965808;28;20121;-79
2024/01/13 07:29:59;;;;;;;48.55;28.35;;;;;;;3.24;68.77;102030.31;4957908;28;20157;-81
2024/01/13 07:32:32;;;;;;;51.33;26.33;;;;;;;3.12;68.72;102029.81;4947062;28;20140;-81
2024/01/13 07:35:04;;;;;;;54.25;27.80;;;;;;;2.94;68.83;101997.22;4959411;28;20699;-82
2024/01/13 07:37:31;;;;;;;54.63;28.25;;;;;;;2.94;68.54;101991.13;4943860;28;20093;-81
2024/01/13 07:39:58;;;;;;;57.42;29.13;;;;;;;3.20;68.55;102035.69;4923252;29;20106;-80
2024/01/13 07:42:25;;;;;;;57.08;29.42;;;;;;;3.14;68.31;102033.25;4940900;28;20118;-81
2024/01/13 07:44:52;;;;;;;61.38;31.23;;;;;;;2.97;68.62;101998.88;4943150;28;20054;-80
2024/01/13 07:47:20;;;;;;;59.40;29.02;;;;;;;3.06;68.68;102003.81;4956252;28;20133;-81
2024/01/13 07:49:47;;;;;;;64.75;30.92;;;;;;;3.11;68.99;102017.63;4942732;28;20576;-81
2024/01/13 07:52:14;;;;;;;64.18;33.65;;;;;;;3.27;69.51;102043.31;4930218;28;20259;-81
2024/01/13 07:54:41;;;;;;;57.22;32.00;;;;;;;3.22;69.24;102028.59;4945645;28;20082;-81
2024/01/13 07:57:08;;;;;;;68.78;33.60;;;;;;;3.37;69.12;102049.97;4946660;28;20647;-81
2024/01/13 07:59:35;;;;;;;66.95;33.35;;;;;;;3.26;69.03;102020.63;4942045;28;20130;-80
2024/01/13 08:02:02;;;;;;;65.32;35.88;;;;;;;3.43;69.12;102028.75;4931993;28;20134;-81
2024/01/13 08:04:29;;;;;;;73.38;36.65;;;;;;;3.53;68.47;102032.75;4938304;28;20042;-81
2024/01/13 08:07:05;;;;;;;71.25;40.05;;;;;;;3.50;68.93;102025.00;4944232;28;20047;-81
2024/01/13 08:09:32;;;;;;;74.85;34.70;;;;;;;3.58;68.99;102046.56;4941646;28;20057;-81
2024/01/13 08:12:02;;;;;;;78.20;39.03;;;;;;;3.63;68.48;102036.75;4928604;28;20053;-81
2024/01/13 08:14:29;;;;;;;78.35;39.53;;;;;;;3.67;69.21;102034.03;4949330;28;20046;-82
2024/01/13 08:16:59;;;;;;;79.35;42.00;;;;;;;3.69;68.94;102034.78;4939921;28;20747;-82
2024/01/13 08:19:26;;;;;;;74.35;39.60;;;;;;;3.62;68.51;101998.28;4946500;28;20058;-82
2024/01/13 08:21:53;;;;;;;86.18;44.60;;;;;;;3.73;69.21;102031.16;4935502;28;20082;-83
2024/01/13 08:24:20;;;;;;;90.35;47.55;;;;;;;3.74;70.16;102012.72;4940054;28;20058;-81
2024/01/13 08:26:53;;;;;;;89.80;46.45;;;;;;;3.88;70.07;102027.94;4945527;28;20046;-80
2024/01/13 08:29:21;;;;;;;86.63;46.15;;;;;;;3.77;70.48;102009.13;4939742;28;20402;-83
2024/01/13 08:31:50;;;;;;;99.97;50.28;;;;;;;3.47;70.21;101943.72;4926714;28;20342;-81
2024/01/13 08:34:18;;;;;;;106.47;52.67;;;;;;;4.05;69.89;102012.41;4951585;28;20053;-81
2024/01/13 08:36:45;;;;;;;104.72;51.00;;;;;;;4.10;70.20;102009.56;4953095;28;20231;-82
2024/01/13 08:39:12;;;;;;;112.60;55.33;;;;;;;4.04;71.16;102005.41;4948272;28;20058;-81
2024/01/13 08:41:39;;;;;;;108.28;56.45;;;;;;;3.69;71.50;101945.50;4946050;28;20046;-82
2024/01/13 08:44:10;;;;;;;115.10;58.15;;;;;;;4.19;71.02;101995.22;4963721;28;20569;-80
2024/01/13 08:46:38;;;;;;;118.80;60.22;;;;;;;3.88;71.73;101928.09;4916755;28;20072;-82
2024/01/13 08:49:05;;;;;;;121.38;58.55;;;;;;;3.69;71.11;101882.47;4953987;28;20046;-81
2024/01/13 08:51:35;;;;;;;126.40;63.78;;;;;;;4.34;71.87;101997.22;4953236;28;20553;-81
2024/01/13 08:54:05;;;;;;;134.90;67.43;;;;;;;4.44;71.68;101998.59;4944681;28;20513;-82
2024/01/13 08:56:38;;;;;;;;;;;;;;;4.46;72.46;102017.75;4926486;28;20140;-82
2024/01/13 08:59:11;;;;;;;143.30;68.07;;;;;;;4.51;72.63;102004.41;4939948;28;19926;-81
2024/01/13 09:01:39;;;;;;;145.00;69.78;;;;;;;4.55;72.84;101995.50;4934438;28;20046;-81
2024/01/13 09:04:10;;;;;;;141.30;70.30;;;;;;;4.48;73.55;101994.88;4950094;28;20079;-82
2024/01/13 09:06:40;;;;;;;144.00;71.03;;;;;;;4.32;73.39;101958.75;4931404;28;20125;-80
2024/01/13 09:09:08;;;;;;;157.63;69.53;;;;;;;4.62;73.24;101996.09;4930320;28;20110;-81
2024/01/13 09:11:37;;;;;;;145.73;71.95;;;;;;;4.61;72.53;101981.22;4940263;28;20482;-82
2024/01/13 09:14:11;;;;;;;140.27;70.50;;;;;;;4.71;72.99;101990.47;4928097;28;20457;-81
2024/01/13 09:16:41;;;;;;;148.18;72.05;;;;;;;4.70;73.16;102001.88;4961363;28;20929;-80
2024/01/13 09:19:08;;;;;;;134.68;67.05;;;;;;;4.80;72.41;101989.19;4967710;28;20128;-82
2024/01/13 09:21:37;;;;;;;143.18;67.50;;;;;;;4.80;71.86;101971.63;4944873;28;20058;-81
2024/01/13 09:24:10;;;;;;;136.23;63.42;;;;;;;4.91;71.29;101998.34;4950239;28;20058;-80
2024/01/13 09:26:43;;;;;;;135.13;62.72;;;;;;;4.82;71.91;101985.59;4938366;28;20231;-81
2024/01/13 09:29:15;;;;;;;132.50;62.35;;;;;;;4.85;71.52;102008.28;4909800;28;20078;-81
2024/01/13 09:31:45;;;;;;;118.63;59.35;;;;;;;4.85;71.25;101985.44;4945903;28;21272;-80
2024/01/13 09:34:12;;;;;;;121.35;58.50;;;;;;;5.08;70.04;102000.25;4949665;28;20078;-81
2024/01/13 09:36:48;;;;;;;116.75;59.15;;;;;;;4.93;70.48;101979.88;4951313;28;20219;-80
2024/01/13 09:39:20;;;;;;;123.28;62.28;;;;;;;5.05;70.06;101983.72;4948643;28;20047;-80
2024/01/13 09:41:50;;;;;;;135.32;64.88;;;;;;;5.12;69.90;101991.31;4925353;28;20128;-79
2024/01/13 09:44:29;;;;;;;120.78;61.55;;;;;;;4.86;70.06;101942.44;4927774;28;20449;-79
2024/01/13 09:46:58;;;;;;;124.28;64.55;;;;;;;5.21;69.81;101987.41;4925203;28;20061;-81
2024/01/13 09:49:30;;;;;;;124.97;62.83;;;;;;;4.60;70.33;101866.44;4949256;28;20078;-82
2024/01/13 09:52:02;;;;;;;142.48;65.72;;;;;;;5.25;70.25;101965.28;4942973;28;20043;-81
2024/01/13 09:54:30;;;;;;;126.22;62.95;;;;;;;5.32;70.49;101982.53;4958127;28;20062;-80
2024/01/13 09:56:58;;;;;;;126.72;65.00;;;;;;;5.03;69.82;101909.25;4940289;28;20336;-81
2024/01/13 09:59:30;;;;;;;133.38;64.47;;;;;;;5.48;69.94;101972.13;4936664;28;20042;-82
2024/01/13 10:02:03;;;;;;;128.60;64.10;;;;;;;5.22;70.07;101923.31;4950904;28;20411;-80
2024/01/13 10:04:37;;;;;;;132.48;66.50;;;;;;;5.53;69.90;101977.19;4947783;28;20069;-81
2024/01/13 10:07:08;;;;;;;131.18;65.05;;;;;;;5.53;70.08;101971.94;4952752;28;20066;-81
2024/01/13 10:09:45;;;;;;;130.77;64.18;;;;;;;5.52;70.28;101968.44;4948181;28;20047;-82
2024/01/13 10:12:11;;;;;;;131.98;68.30;;;;;;;5.51;70.19;101956.22;4947807;28;20085;-82
2024/01/13 10:14:41;;;;;;;143.32;68.63;;;;;;;5.17;70.07;101890.19;4942668;28;20157;-83
2024/01/13 10:17:11;;;;;;;133.55;67.40;;;;;;;5.58;70.74;101959.38;4947609;28;20061;-80
2024/01/13 10:19:41;;;;;;;137.57;67.07;;;;;;;5.64;70.82;101956.50;4934092;28;20054;-81
2024/01/13 10:22:10;;;;;;;145.48;68.93;;;;;;;5.76;70.56;101950.63;4942206;28;20061;-83
2024/01/13 10:24:38;;;;;;;140.23;67.97;;;;;;;5.71;70.44;101939.47;4938468;28;20097;-81
2024/01/13 10:27:08;;;;;;;140.07;67.38;;;;;;;5.76;70.73;101945.38;4937739;28;20396;-79
2024/01/13 10:29:39;;;;;;;;;;;;;;;5.76;70.55;101934.81;4917495;28;20054;-81
2024/01/13 10:32:12;;;;;;;140.40;68.93;;;;;;;5.76;71.50;101939.25;4920217;28;19935;-82
2024/01/13 10:34:53;;;;;;;147.38;71.82;;;;;;;5.68;71.02;101900.09;4943097;28;20054;-81
2024/01/13 10:37:25;;;;;;;149.40;76.10;;;;;;;5.95;70.57;101923.44;4898976;28;20843;-80
2024/01/13 10:40:01;;;;;;;158.50;77.72;;;;;;;5.91;71.23;101911.31;4894393;28;20357;-81
2024/01/13 10:42:36;;;;;;;163.43;80.80;;;;;;;6.06;70.30;101918.50;4931848;28;20051;-81
2024/01/13 10:45:10;;;;;;;161.10;76.85;;;;;;;6.05;70.05;101906.25;4931033;28;20074;-77
2024/01/13 10:47:42;;;;;;;149.45;78.25;;;;;;;6.15;70.41;101915.41;4931150;28;20462;-79
2024/01/13 10:50:10;;;;;;;;;;;;;;;6.13;70.60;101917.25;4949155;28;20129;-80
2024/01/13 10:53:05;;;;;;;157.98;75.30;;;;;;;6.20;70.77;101913.38;4940500;28;20433;-80
2024/01/13 10:55:34;;;;;;;160.38;77.47;;;;;;;6.25;70.29;101910.53;4922665;28;20054;-80
2024/01/13 10:58:05;;;;;;;159.77;77.82;;;;;;;6.02;70.77;101866.88;4931478;28;20117;-79
2024/01/13 11:00:33;;;;;;;167.88;81.40;;;;;;;6.29;70.97;101900.69;4927053;28;20047;-81
2024/01/13 11:03:03;;;;;;;170.18;81.60;;;;;;;6.26;71.02;101895.56;4926543;29;20386;-81
2024/01/13 11:05:32;;;;;;;166.93;79.50;;;;;;;6.28;70.33;101877.88;4919536;29;20054;-79
2024/01/13 11:08:03;;;;;;;155.75;79.18;;;;;;;6.30;71.19;101881.28;4924014;29;20567;-80
2024/01/13 11:10:37;;;;;;;151.82;78.40;;;;;;;6.24;71.12;101871.03;4927037;29;20051;-81
2024/01/13 11:13:12;;;;;;;157.13;79.75;;;;;;;6.35;70.77;101874.00;4922102;29;20046;-81
2024/01/13 11:15:55;;;;;;;155.25;76.65;;;;;;;6.32;70.77;101871.53;4924262;28;20054;-81
2024/01/13 11:18:36;;;;;;;149.95;75.97;;;;;;;6.25;70.68;101859.56;4922606;29;20062;-81
2024/01/13 11:21:07;;;;;;;142.00;76.78;;;;;;;6.40;70.40;101869.34;4920524;29;20055;-82
2024/01/13 11:24:01;;;;;;;145.10;73.97;;;;;;;6.29;70.39;101842.69;4921568;28;20043;-79
2024/01/13 11:26:35;;;;;;;155.43;76.95;;;;;;;6.42;70.52;101865.69;4909507;29;20203;-81